Time;durP1;ratioP1;P1;durP2;ratioP2;P2;SDS_P1;SDS_P2;PMS_P1;PMS_P2;Temp;Humidity;BMP_temperature;BMP_pressure;BME280_temperature;BME280_humidity;BME280_pressure;Samples;Min_cycle;Max_cycle;Signal;HPM_P1;HPM_P2
2022/06/12 00:02:39;;;;;;;5.80;3.12;;;;;;;21.27;62.10;100075.16;4465137;32;34780;-77
2022/06/12 00:05:32;;;;;;;5.43;3.03;;;;;;;21.02;62.49;100078.31;4464685;32;34670;-77
2022/06/12 00:08:20;;;;;;;5.05;3.60;;;;;;;21.09;62.64;100075.66;4458026;32;35088;-77
2022/06/12 00:11:09;;;;;;;5.15;3.22;;;;;;;20.63;64.39;100075.63;4462907;32;34168;-77
2022/06/12 00:13:59;;;;;;;4.53;3.03;;;;;;;20.95;63.37;100072.62;4463554;32;34953;-77
2022/06/12 00:16:46;;;;;;;6.37;3.17;;;;;;;20.95;64.57;100075.41;4461354;32;34733;-77
2022/06/12 00:19:32;;;;;;;8.90;3.50;;;;;;;20.82;65.33;100066.41;4463515;32;34724;-77
2022/06/12 00:22:19;;;;;;;5.32;3.20;;;;;;;20.61;65.84;100071.59;4462599;32;34715;-77
2022/06/12 00:25:09;;;;;;;4.55;3.08;;;;;;;20.16;68.52;100061.91;4460995;32;34701;-77
2022/06/12 00:27:55;;;;;;;6.00;3.10;;;;;;;19.38;70.54;100058.97;4463857;32;34621;-77
2022/06/12 00:30:41;;;;;;;5.15;3.35;;;;;;;19.92;68.85;100057.41;4462083;32;33738;-76
2022/06/12 00:33:28;;;;;;;4.75;3.58;;;;;;;19.36;72.41;100052.16;4465456;32;34804;-76
2022/06/12 00:36:14;;;;;;;8.05;3.12;;;;;;;19.49;72.34;100053.63;4462702;32;33737;-77
2022/06/12 00:39:01;;;;;;;7.20;3.70;;;;;;;20.18;68.40;100054.03;4461537;32;34680;-77
2022/06/12 00:41:50;;;;;;;4.82;3.35;;;;;;;19.53;70.82;100057.31;4461629;32;32936;-77
2022/06/12 00:44:39;;;;;;;6.45;3.65;;;;;;;19.99;68.99;100052.03;4464555;32;34191;-76
2022/06/12 00:47:26;;;;;;;5.75;3.65;;;;;;;19.29;72.02;100053.56;4463093;32;34917;-77
2022/06/12 00:50:13;;;;;;;4.12;3.42;;;;;;;19.58;69.96;100057.03;4462393;32;35677;-77
2022/06/12 00:53:00;;;;;;;6.00;3.72;;;;;;;19.52;69.10;100050.13;4458424;32;33950;-77
2022/06/12 00:56:02;;;;;;;7.87;3.70;;;;;;;19.17;70.89;100045.34;4463462;32;34558;-77
2022/06/12 00:58:54;;;;;;;4.72;3.35;;;;;;;19.04;71.19;100054.91;4463494;32;34990;-77
2022/06/12 01:01:50;;;;;;;4.80;3.40;;;;;;;19.98;67.33;100053.19;4460155;32;35534;-76
2022/06/12 01:07:46;;;;;;;6.18;3.58;;;;;;;20.00;67.21;100051.63;4462591;32;35585;-77
2022/06/12 01:10:33;;;;;;;6.20;3.60;;;;;;;19.74;67.27;100046.69;4460233;32;35936;-77
2022/06/12 01:13:27;;;;;;;5.70;3.50;;;;;;;18.95;67.67;100043.97;4458103;32;34367;-77
2022/06/12 01:16:17;;;;;;;5.47;3.50;;;;;;;19.28;67.08;100040.03;4452027;32;34093;-77
2022/06/12 01:19:06;;;;;;;8.02;3.08;;;;;;;19.11;65.99;100038.44;4453564;32;35252;-77
2022/06/12 01:21:55;;;;;;;7.18;2.95;;;;;;;19.52;63.35;100036.22;4464033;32;34886;-77
2022/06/12 01:24:48;;;;;;;4.57;3.12;;;;;;;19.07;65.62;100040.34;4457086;32;33492;-76
2022/06/12 01:28:22;;;;;;;4.15;3.00;;;;;;;19.54;63.99;100042.25;4463316;32;33145;-77
2022/06/12 01:31:33;;;;;;;4.72;3.00;;;;;;;19.33;63.46;100048.13;4463003;32;34683;-77
2022/06/12 01:34:27;;;;;;;4.50;2.70;;;;;;;19.62;62.17;100044.03;4459849;32;35861;-77
2022/06/12 01:37:28;;;;;;;3.87;2.65;;;;;;;19.85;61.47;100040.59;4462173;32;35483;-77
2022/06/12 01:40:17;;;;;;;4.05;2.70;;;;;;;19.93;61.25;100040.37;4460975;32;34726;-77
2022/06/12 01:43:47;;;;;;;5.40;2.90;;;;;;;19.62;62.51;100044.03;4464071;32;34332;-76
2022/06/12 01:46:40;;;;;;;7.85;2.90;;;;;;;19.98;62.46;100039.28;4464127;32;34603;-77
2022/06/12 01:49:40;;;;;;;4.82;2.78;;;;;;;20.32;60.68;100036.78;4459816;32;33826;-76
2022/06/12 01:52:36;;;;;;;4.82;2.72;;;;;;;19.71;63.86;100027.97;4459881;32;34750;-77
2022/06/12 01:55:29;;;;;;;4.00;2.78;;;;;;;19.63;63.65;100039.25;4462468;32;34399;-76
2022/06/12 01:58:29;;;;;;;3.58;2.75;;;;;;;19.31;63.00;100028.22;4463998;32;35966;-77
2022/06/12 02:01:27;;;;;;;4.40;2.53;;;;;;;19.20;63.48;100033.50;4461391;32;35521;-77
2022/06/12 02:04:24;;;;;;;5.10;2.87;;;;;;;19.36;63.10;100035.47;4459585;32;35174;-77
2022/06/12 02:07:15;;;;;;;6.15;2.85;;;;;;;19.73;63.00;100033.19;4460771;32;35292;-77
2022/06/12 02:10:11;;;;;;;4.30;2.72;;;;;;;19.07;64.36;100030.03;4463841;32;34723;-77
2022/06/12 02:13:12;;;;;;;4.53;2.47;;;;;;;19.01;63.98;100020.34;4459797;32;34656;-77
2022/06/12 02:16:04;;;;;;;4.72;2.37;;;;;;;19.08;63.26;100020.53;4462940;32;33032;-77
2022/06/12 02:18:54;;;;;;;4.78;2.72;;;;;;;19.94;61.33;100030.06;4460624;32;34891;-77
2022/06/12 02:21:48;;;;;;;3.57;2.80;;;;;;;19.97;61.48;100020.97;4462293;32;35028;-77
2022/06/12 02:24:42;;;;;;;5.37;2.80;;;;;;;20.09;61.53;100033.94;4462101;32;34856;-77
2022/06/12 02:27:36;;;;;;;3.42;2.42;;;;;;;20.57;59.07;100029.75;4461789;32;35092;-77
2022/06/12 02:30:26;;;;;;;5.05;2.15;;;;;;;20.04;59.41;100032.28;4461357;32;35309;-77
2022/06/12 02:33:30;;;;;;;5.45;2.80;;;;;;;20.55;57.93;100036.87;4462245;32;35962;-77
2022/06/12 02:36:21;;;;;;;3.90;2.65;;;;;;;20.33;58.11;100033.66;4450268;32;34146;-77
2022/06/12 02:39:21;;;;;;;3.45;2.33;;;;;;;20.09;59.76;100039.50;4462907;32;35061;-77
2022/06/12 02:42:29;;;;;;;5.62;2.50;;;;;;;20.37;58.88;100037.28;4457176;32;34626;-77
2022/06/12 02:45:28;;;;;;;3.42;2.50;;;;;;;20.36;58.84;100032.91;4461897;32;35588;-77
2022/06/12 02:48:14;;;;;;;6.68;2.60;;;;;;;20.29;59.31;100037.53;4460763;32;35302;-76
2022/06/12 02:51:25;;;;;;;4.35;2.45;;;;;;;20.40;59.15;100036.56;4460578;32;34410;-77
2022/06/12 02:54:39;;;;;;;5.65;2.83;;;;;;;20.58;58.48;100039.75;4463683;32;34440;-77
2022/06/12 02:57:42;;;;;;;4.15;3.08;;;;;;;19.73;62.95;100044.31;4462197;32;35048;-77
2022/06/12 03:00:50;;;;;;;5.03;2.72;;;;;;;19.39;65.25;100051.41;4459842;32;34628;-77
2022/06/12 03:03:48;;;;;;;4.80;2.97;;;;;;;19.37;65.24;100042.62;4459505;32;35019;-77
2022/06/12 03:06:34;;;;;;;4.70;2.53;;;;;;;19.77;63.83;100045.97;4462028;32;34154;-77
2022/06/12 03:09:21;;;;;;;6.93;2.75;;;;;;;19.16;64.48;100046.50;4461445;32;36457;-77
2022/06/12 03:12:08;;;;;;;3.70;2.55;;;;;;;19.18;64.55;100041.41;4450332;32;35496;-77
2022/06/12 03:14:55;;;;;;;8.60;2.95;;;;;;;19.01;64.96;100044.53;4460484;32;34160;-77
2022/06/12 03:17:42;;;;;;;4.22;3.05;;;;;;;18.95;66.31;100046.75;4449353;32;34351;-77
2022/06/12 03:20:40;;;;;;;3.75;2.55;;;;;;;17.73;71.57;100062.72;4461940;32;34477;-77
2022/06/12 03:23:37;;;;;;;4.28;2.53;;;;;;;18.40;67.29;100062.31;4461206;32;34624;-77
2022/06/12 03:26:36;;;;;;;5.82;2.85;;;;;;;18.88;65.87;100054.91;4458350;32;33812;-77
2022/06/12 03:29:34;;;;;;;2.95;2.50;;;;;;;18.42;68.60;100057.22;4457724;32;34285;-77
2022/06/12 03:32:51;;;;;;;5.95;2.92;;;;;;;18.14;68.06;100059.97;4460513;32;34947;-76
2022/06/12 03:35:50;;;;;;;5.35;2.50;;;;;;;18.87;65.51;100061.63;4464082;32;34701;-77
2022/06/12 03:38:47;;;;;;;4.55;2.83;;;;;;;18.35;67.91;100063.34;4463713;32;34122;-77
2022/06/12 03:41:49;;;;;;;5.75;2.70;;;;;;;18.60;66.59;100066.03;4460056;32;34241;-77
2022/06/12 03:44:46;;;;;;;5.90;2.53;;;;;;;17.99;69.44;100069.84;4462066;32;35899;-77
2022/06/12 03:47:43;;;;;;;5.75;2.62;;;;;;;17.19;73.13;100065.72;4461390;32;34554;-77
2022/06/12 03:50:40;;;;;;;5.60;2.60;;;;;;;16.98;73.34;100076.88;4461811;32;34317;-77
2022/06/12 03:53:29;;;;;;;4.40;2.65;;;;;;;18.16;67.54;100071.53;4462404;32;34657;-76
2022/06/12 03:59:32;;;;;;;4.47;2.30;;;;;;;18.41;67.57;100064.75;4451794;32;34537;-77
2022/06/12 04:02:21;;;;;;;4.93;2.95;;;;;;;17.85;71.06;100074.97;4458287;32;34185;-77
2022/06/12 04:05:10;;;;;;;4.32;2.58;;;;;;;18.15;70.23;100078.22;4462282;32;35516;-77
2022/06/12 04:07:57;;;;;;;4.28;2.90;;;;;;;17.65;71.02;100077.50;4464456;32;34465;-76
2022/06/12 04:10:44;;;;;;;5.07;2.58;;;;;;;16.69;75.60;100082.53;4463105;32;35525;-76
2022/06/12 04:13:31;;;;;;;3.97;2.30;;;;;;;17.06;74.76;100073.19;4464374;32;33841;-76
2022/06/12 04:16:38;;;;;;;4.03;2.62;;;;;;;17.08;75.33;100073.66;4461286;32;35533;-76
2022/06/12 04:19:26;;;;;;;4.37;2.47;;;;;;;17.58;74.22;100076.44;4465467;32;35536;-76
2022/06/12 04:22:14;;;;;;;4.82;2.70;;;;;;;18.16;70.39;100080.66;4464171;32;34749;-76
2022/06/12 04:25:26;;;;;;;3.92;2.45;;;;;;;17.50;71.35;100079.00;4460031;32;34198;-76
2022/06/12 04:28:32;;;;;;;4.72;2.78;;;;;;;17.43;71.46;100076.00;4459975;32;87444;-76
2022/06/12 04:31:19;;;;;;;3.55;2.42;;;;;;;17.57;73.59;100080.38;4461745;32;35921;-77
2022/06/12 04:34:28;;;;;;;4.70;2.35;;;;;;;18.02;71.73;100082.22;4462418;32;34602;-77
2022/06/12 04:37:17;;;;;;;7.07;2.55;;;;;;;17.93;71.54;100076.75;4463710;32;33759;-77
2022/06/12 04:40:07;;;;;;;3.92;2.50;;;;;;;18.39;70.25;100078.16;4451814;32;35549;-77
2022/06/12 04:42:53;;;;;;;5.47;2.60;;;;;;;18.86;67.03;100083.03;4461642;32;34851;-76
2022/06/12 04:45:40;;;;;;;3.55;2.25;;;;;;;18.76;67.38;100079.97;4464550;32;34678;-76
2022/06/12 04:48:36;;;;;;;5.00;2.15;;;;;;;18.98;65.79;100087.72;4463296;32;33848;-76
2022/06/12 04:51:23;;;;;;;6.57;2.35;;;;;;;18.52;67.77;100089.19;4461285;32;34630;-76
2022/06/12 04:54:09;;;;;;;5.55;2.58;;;;;;;18.37;69.87;100088.78;4460605;32;34944;-76
2022/06/12 04:56:57;;;;;;;4.18;2.25;;;;;;;18.82;68.38;100086.88;4463564;32;33627;-76
2022/06/12 04:59:44;;;;;;;5.18;2.70;;;;;;;18.69;67.42;100086.09;4453160;32;34969;-76
2022/06/12 05:02:31;;;;;;;4.78;2.20;;;;;;;18.51;67.16;100085.59;4460351;32;35455;-76
2022/06/12 05:05:18;;;;;;;5.43;2.45;;;;;;;18.75;66.17;100090.25;4460790;32;34943;-76
2022/06/12 05:08:04;;;;;;;6.00;2.42;;;;;;;18.64;66.45;100095.50;4463389;32;34240;-76
2022/06/12 05:10:50;;;;;;;4.53;2.72;;;;;;;18.58;67.39;100085.00;4465427;32;34178;-76
2022/06/12 05:13:37;;;;;;;4.28;2.25;;;;;;;18.49;66.60;100089.91;4451882;32;34639;-76
2022/06/12 05:16:29;;;;;;;6.45;2.92;;;;;;;18.32;67.89;100099.31;4461573;32;35875;-76
2022/06/12 05:19:19;;;;;;;3.35;2.12;;;;;;;18.41;67.90;100084.16;4461972;32;34650;-76
2022/06/12 05:22:07;;;;;;;4.53;2.58;;;;;;;18.38;68.41;100095.13;4458540;32;34077;-76
2022/06/12 05:24:54;;;;;;;4.65;2.60;;;;;;;18.78;67.73;100094.28;4463113;32;34710;-76
2022/06/12 05:27:42;;;;;;;6.20;2.50;;;;;;;19.03;64.69;100100.50;4465288;32;34949;-76
2022/06/12 05:30:31;;;;;;;4.22;2.30;;;;;;;19.04;65.92;100099.34;4462808;32;34603;-77
2022/06/12 05:33:17;;;;;;;4.95;2.55;;;;;;;19.17;66.67;100100.88;4459023;32;34099;-76
2022/06/12 05:36:05;;;;;;;3.22;2.17;;;;;;;19.12;64.48;100112.25;4464385;32;34731;-76
2022/06/12 05:38:52;;;;;;;5.18;2.35;;;;;;;19.32;65.99;100113.16;4462896;32;34508;-76
2022/06/12 05:41:39;;;;;;;6.62;2.62;;;;;;;19.17;65.79;100116.75;4462353;32;34834;-76
2022/06/12 05:44:25;;;;;;;6.43;2.50;;;;;;;19.20;65.44;100116.03;4461519;32;34345;-76
2022/06/12 05:47:15;;;;;;;3.42;2.22;;;;;;;18.96;65.78;100105.91;4449663;32;35575;-76
2022/06/12 05:50:02;;;;;;;6.55;2.45;;;;;;;19.38;65.44;100099.81;4455977;32;34995;-76
2022/06/12 05:52:48;;;;;;;4.03;2.17;;;;;;;19.29;64.61;100108.31;4461281;32;34621;-76
2022/06/12 05:55:34;;;;;;;3.12;2.50;;;;;;;19.56;64.44;100112.19;4463219;32;33704;-76
2022/06/12 05:58:22;;;;;;;6.10;2.90;;;;;;;19.76;63.19;100108.31;4463811;32;34742;-76
2022/06/12 06:01:11;;;;;;;6.47;2.40;;;;;;;20.38;61.56;100118.81;4465013;32;35039;-76
2022/06/12 06:03:58;;;;;;;5.03;2.47;;;;;;;20.53;60.58;100126.31;4460313;32;34418;-76
2022/06/12 06:06:51;;;;;;;8.07;2.20;;;;;;;20.41;59.66;100115.31;4463608;32;35222;-77
2022/06/12 06:09:37;;;;;;;4.78;2.20;;;;;;;20.45;60.74;100119.75;4464706;32;35581;-77
2022/06/12 06:12:24;;;;;;;4.00;2.10;;;;;;;20.72;58.75;100125.53;4463050;32;35675;-76
2022/06/12 06:15:11;;;;;;;4.12;2.40;;;;;;;21.09;56.61;100116.66;4462132;32;34630;-77
2022/06/12 06:17:57;;;;;;;5.75;2.10;;;;;;;21.08;58.10;100124.19;4472056;32;34090;-76
2022/06/12 06:20:44;;;;;;;4.22;2.17;;;;;;;20.79;57.59;100119.28;4461932;32;34694;-76
2022/06/12 06:23:31;;;;;;;4.28;2.20;;;;;;;21.22;57.21;100122.84;4462010;32;34897;-76
2022/06/12 06:26:18;;;;;;;3.05;2.28;;;;;;;21.72;57.01;100118.13;4461514;32;35510;-77
2022/06/12 06:29:05;;;;;;;4.18;2.00;;;;;;;21.27;54.96;100120.56;4459396;32;33623;-77
2022/06/12 06:31:51;;;;;;;5.82;2.20;;;;;;;20.79;56.17;100117.28;4460781;32;34563;-76
2022/06/12 06:34:39;;;;;;;2.78;2.00;;;;;;;21.29;54.79;100120.19;4462764;32;35129;-76
2022/06/12 06:37:26;;;;;;;3.80;2.08;;;;;;;21.55;54.91;100125.03;4458025;32;35730;-77
2022/06/12 06:40:13;;;;;;;3.15;2.40;;;;;;;21.87;52.15;100125.53;4455503;32;34120;-77
2022/06/12 06:43:00;;;;;;;4.57;2.30;;;;;;;21.63;52.02;100121.19;4457546;32;34671;-76
2022/06/12 06:48:52;;;;;;;3.42;2.30;;;;;;;21.44;52.08;100115.69;4458207;32;34197;-81
2022/06/12 06:51:38;;;;;;;6.70;2.53;;;;;;;21.79;50.93;100123.81;4451885;32;34083;-80
2022/06/12 06:54:25;;;;;;;4.05;2.20;;;;;;;21.46;51.64;100111.37;4458182;32;33671;-81
2022/06/12 06:57:12;;;;;;;5.25;2.42;;;;;;;21.79;50.05;100118.25;4459911;32;34580;-81
2022/06/12 06:59:59;;;;;;;3.33;2.30;;;;;;;21.92;50.22;100121.63;4456347;32;35670;-81
2022/06/12 07:02:45;;;;;;;3.20;2.22;;;;;;;22.08;50.99;100121.44;4452828;32;34198;-81
2022/06/12 07:05:32;;;;;;;6.25;2.50;;;;;;;22.04;50.11;100117.81;4462533;32;34276;-81
2022/06/12 07:08:20;;;;;;;3.65;2.47;;;;;;;22.40;50.77;100117.12;4455388;32;34998;-81
2022/06/12 07:11:06;;;;;;;4.90;2.67;;;;;;;22.63;51.40;100117.00;4460823;32;35063;-81
2022/06/12 07:13:53;;;;;;;5.97;2.90;;;;;;;22.46;50.27;100117.59;4459175;32;33911;-81
2022/06/12 07:16:40;;;;;;;3.92;2.72;;;;;;;22.83;49.12;100120.44;4458780;32;34542;-81
2022/06/12 07:19:27;;;;;;;3.55;2.53;;;;;;;22.65;49.46;100119.41;4457520;32;34579;-81
2022/06/12 07:22:13;;;;;;;6.22;2.28;;;;;;;22.79;49.65;100116.78;4456772;32;36118;-81
2022/06/12 07:25:00;;;;;;;5.70;2.42;;;;;;;22.64;50.06;100115.81;4457448;32;35060;-80
2022/06/12 07:27:47;;;;;;;3.08;2.33;;;;;;;22.66;49.82;100119.03;4450305;32;34197;-81
2022/06/12 07:30:34;;;;;;;3.42;2.60;;;;;;;23.16;47.60;100113.19;4460969;32;36493;-81
2022/06/12 07:33:21;;;;;;;5.53;2.30;;;;;;;22.65;48.75;100109.06;4449169;32;35636;-82
2022/06/12 07:36:10;;;;;;;5.40;2.50;;;;;;;23.08;48.68;100105.94;4444793;32;33857;-82
2022/06/12 07:38:56;;;;;;;5.30;2.80;;;;;;;23.54;47.00;100111.16;4454569;32;34210;-82
2022/06/12 07:42:03;;;;;;;3.83;2.42;;;;;;;22.70;48.62;100102.31;4450259;32;34956;-82
2022/06/12 07:44:50;;;;;;;3.28;2.30;;;;;;;23.06;47.21;100109.13;4455992;32;34503;-80
2022/06/12 07:47:36;;;;;;;3.70;2.45;;;;;;;23.66;45.69;100105.25;4452407;32;33747;-81
2022/06/12 07:50:23;;;;;;;3.37;2.33;;;;;;;23.37;46.09;100103.41;4454010;32;35328;-82
2022/06/12 07:53:10;;;;;;;5.20;2.40;;;;;;;23.43;46.82;100102.66;4454327;32;36056;-81
2022/06/12 07:55:57;;;;;;;4.40;2.80;;;;;;;24.18;44.89;100102.38;4454343;32;34670;-81
2022/06/12 07:58:45;;;;;;;5.00;2.97;;;;;;;23.75;46.20;100102.94;4461028;32;34167;-82
2022/06/12 08:01:32;;;;;;;4.68;2.28;;;;;;;23.90;46.22;100097.44;4452967;32;34365;-81
2022/06/12 08:04:19;;;;;;;5.53;2.62;;;;;;;23.59;46.00;100105.16;4457130;32;35050;-81
2022/06/12 08:07:06;;;;;;;5.10;2.60;;;;;;;23.92;46.74;100095.06;4450244;32;35147;-82
2022/06/12 08:09:52;;;;;;;6.35;2.70;;;;;;;24.22;46.16;100097.63;4453807;32;34660;-81
2022/06/12 08:12:41;;;;;;;4.97;2.67;;;;;;;24.42;46.85;100100.91;4465972;32;34658;-77
2022/06/12 08:15:29;;;;;;;5.12;2.60;;;;;;;24.68;46.04;100103.44;4464050;32;34934;-76
2022/06/12 08:18:17;;;;;;;4.55;2.72;;;;;;;23.77;47.55;100097.75;4463535;32;34626;-76
2022/06/12 08:21:07;;;;;;;5.78;2.95;;;;;;;23.70;47.89;100099.66;4462347;32;35047;-76
2022/06/12 08:23:57;;;;;;;4.28;2.60;;;;;;;23.72;46.91;100089.72;4453744;32;34298;-76
2022/06/12 08:26:43;;;;;;;6.50;3.28;;;;;;;24.34;47.17;100096.47;4462546;32;34632;-76
2022/06/12 08:29:30;;;;;;;5.85;2.90;;;;;;;24.56;47.25;100097.38;4461264;32;35252;-76
2022/06/12 08:32:20;;;;;;;5.00;2.97;;;;;;;24.64;45.88;100090.59;4448823;32;33294;-76
2022/06/12 08:35:12;;;;;;;7.70;3.03;;;;;;;24.28;46.86;100089.62;4451868;32;34178;-76
2022/06/12 08:37:59;;;;;;;7.60;2.80;;;;;;;24.78;46.91;100078.63;4461260;32;35983;-76
2022/06/12 08:40:53;;;;;;;6.95;2.80;;;;;;;24.67;45.75;100087.78;4462523;32;34528;-76
2022/06/12 08:43:51;;;;;;;3.85;2.47;;;;;;;24.16;45.13;100080.41;4463536;32;34864;-76
2022/06/12 08:46:43;;;;;;;5.97;2.95;;;;;;;24.52;45.48;100091.75;4463121;32;34361;-76
2022/06/12 08:49:36;;;;;;;5.90;3.12;;;;;;;24.81;45.62;100091.84;4450483;32;34616;-76
2022/06/12 08:52:36;;;;;;;4.60;3.08;;;;;;;24.96;45.56;100096.31;4447509;32;34565;-75
2022/06/12 08:55:49;;;;;;;4.85;2.85;;;;;;;24.50;44.92;100096.16;4463583;32;35093;-75
2022/06/12 08:58:48;;;;;;;4.87;3.03;;;;;;;24.80;43.82;100090.25;4463358;32;34526;-75
2022/06/12 09:01:41;;;;;;;3.97;2.90;;;;;;;24.96;45.16;100093.50;4450785;32;35852;-75
2022/06/12 09:04:28;;;;;;;4.80;3.22;;;;;;;24.70;44.81;100100.22;4459816;32;35445;-77
2022/06/12 09:07:28;;;;;;;5.15;3.15;;;;;;;24.69;44.47;100091.00;4462607;32;33581;-76
2022/06/12 09:10:41;;;;;;;4.18;2.90;;;;;;;24.48;45.18;100088.16;4441783;32;35205;-76
2022/06/12 09:13:30;;;;;;;5.05;3.00;;;;;;;24.94;44.44;100081.88;4460885;32;33591;-75
2022/06/12 09:16:30;;;;;;;6.68;3.20;;;;;;;25.70;44.29;100094.75;4457936;32;34252;-75
2022/06/12 09:19:44;;;;;;;5.28;3.10;;;;;;;25.37;44.02;100092.34;4459433;32;33612;-76
2022/06/12 09:22:35;;;;;;;4.03;3.10;;;;;;;25.08;43.59;100076.28;4457895;32;34649;-76
2022/06/12 09:25:28;;;;;;;5.35;3.85;;;;;;;25.33;42.72;100075.50;4461812;32;35793;-75
2022/06/12 09:28:21;;;;;;;6.22;4.30;;;;;;;25.87;41.32;100078.28;4455518;32;34782;-76
2022/06/12 09:31:24;;;;;;;5.68;3.65;;;;;;;24.92;42.89;100087.06;4458047;32;34242;-75
2022/06/12 09:34:48;;;;;;;4.55;3.10;;;;;;;25.46;42.00;100073.91;4457989;32;34787;-76
2022/06/12 09:41:19;;;;;;;5.12;3.20;;;;;;;25.70;42.78;100077.91;4459422;32;34474;-76
2022/06/12 09:44:21;;;;;;;6.57;2.95;;;;;;;25.46;42.14;100070.31;4453099;32;35220;-77
2022/06/12 09:47:23;;;;;;;3.92;3.05;;;;;;;25.71;42.68;100065.47;4450330;32;35655;-77
2022/06/12 09:50:45;;;;;;;8.35;3.10;;;;;;;26.57;42.07;100064.41;4463903;32;35058;-76
2022/06/12 09:53:50;;;;;;;5.55;3.53;;;;;;;25.91;42.29;100065.84;4461901;32;34222;-75
2022/06/12 09:56:37;;;;;;;3.97;3.35;;;;;;;25.70;41.94;100051.81;4462858;32;33799;-77
2022/06/12 09:59:32;;;;;;;4.55;3.10;;;;;;;25.98;42.47;100054.59;4464167;32;35720;-76
2022/06/12 10:02:49;;;;;;;3.50;2.95;;;;;;;26.19;40.98;100052.94;4461511;32;36098;-73
2022/06/12 10:05:40;;;;;;;6.05;3.40;;;;;;;27.02;39.30;100044.84;4462877;32;34526;-76
2022/06/12 10:08:40;;;;;;;4.55;3.37;;;;;;;26.35;40.12;100050.44;4463920;32;34139;-76
2022/06/12 10:11:44;;;;;;;5.03;3.20;;;;;;;26.49;41.42;100043.94;4458235;32;34771;-75
2022/06/12 10:14:34;;;;;;;4.80;3.65;;;;;;;26.51;40.97;100046.38;4459929;32;35978;-76
2022/06/12 10:17:25;;;;;;;8.70;3.50;;;;;;;27.51;39.24;100040.03;4461785;32;34592;-76
2022/06/12 10:20:16;;;;;;;6.03;3.35;;;;;;;26.57;43.37;100045.53;4464691;32;33714;-76
2022/06/12 10:23:02;;;;;;;4.75;3.60;;;;;;;27.09;40.95;100036.34;4452795;32;33523;-76
2022/06/12 10:25:52;;;;;;;4.50;3.28;;;;;;;27.44;39.83;100031.69;4464491;32;35041;-76
2022/06/12 10:28:38;;;;;;;3.60;3.17;;;;;;;26.86;40.04;100023.66;4463515;32;34848;-76
2022/06/12 10:31:25;;;;;;;5.97;3.62;;;;;;;27.63;39.41;100025.44;4462818;32;34279;-75
2022/06/12 10:34:20;;;;;;;5.75;3.70;;;;;;;26.63;40.63;100026.25;4464264;32;35177;-76
2022/06/12 10:37:29;;;;;;;4.62;3.40;;;;;;;26.45;41.88;100031.94;4462480;32;34909;-76
2022/06/12 10:40:22;;;;;;;4.87;3.58;;;;;;;26.74;40.06;100021.34;4460527;32;34112;-77
2022/06/12 10:43:24;;;;;;;8.13;3.42;;;;;;;26.95;39.88;100025.22;4459080;32;34101;-77
2022/06/12 10:46:13;;;;;;;5.10;3.30;;;;;;;27.12;40.20;100024.28;4462079;32;35655;-77
2022/06/12 10:49:02;;;;;;;4.75;3.50;;;;;;;27.15;38.83;100017.81;4460955;32;34551;-77
2022/06/12 10:51:50;;;;;;;4.57;3.40;;;;;;;26.24;40.38;100015.97;4461519;32;35487;-76
2022/06/12 10:54:36;;;;;;;4.30;3.40;;;;;;;27.27;39.47;100019.38;4463257;32;35109;-77
2022/06/12 10:57:44;;;;;;;4.80;3.70;;;;;;;27.58;38.82;100009.03;4460923;32;34265;-76
2022/06/12 11:00:34;;;;;;;5.35;3.60;;;;;;;27.13;39.02;100011.81;4460600;32;34551;-76
2022/06/12 11:03:28;;;;;;;6.70;4.10;;;;;;;26.92;40.09;100007.97;4460012;32;34625;-77
2022/06/12 11:06:36;;;;;;;3.55;3.22;;;;;;;27.60;38.53;100017.81;4461762;32;34746;-77
2022/06/12 11:09:40;;;;;;;5.78;3.75;;;;;;;27.52;38.32;100013.47;4464009;32;35096;-76
2022/06/12 11:13:00;;;;;;;4.03;3.60;;;;;;;27.62;38.04;99995.69;4461083;32;35012;-75
2022/06/12 11:15:55;;;;;;;4.47;3.03;;;;;;;26.99;40.51;100003.50;4465174;32;34683;-76
2022/06/12 11:18:55;;;;;;;4.72;3.35;;;;;;;27.51;38.92;100009.09;4460823;32;35060;-77
2022/06/12 11:22:00;;;;;;;5.32;3.67;;;;;;;28.25;37.94;99998.19;4461666;32;35656;-77
2022/06/12 11:25:07;;;;;;;6.00;3.40;;;;;;;27.22;39.00;100000.91;4465197;32;35954;-76
2022/06/12 11:28:21;;;;;;;4.70;3.75;;;;;;;28.12;37.51;100006.41;4463475;32;34523;-76
2022/06/12 11:31:13;;;;;;;4.32;3.47;;;;;;;28.15;38.05;99994.31;4462297;32;35189;-77
2022/06/12 11:34:12;;;;;;;5.00;3.85;;;;;;;28.50;38.04;99991.44;4461073;32;34607;-76
2022/06/12 11:36:58;;;;;;;6.03;3.83;;;;;;;27.59;38.83;99996.53;4456061;32;34547;-76
2022/06/12 11:40:08;;;;;;;5.20;3.67;;;;;;;27.64;37.58;99998.09;4459561;32;34119;-76
2022/06/12 11:43:03;;;;;;;5.53;3.50;;;;;;;26.69;40.38;100008.53;4463695;32;33867;-76
2022/06/12 11:46:16;;;;;;;4.15;3.50;;;;;;;28.10;40.95;99993.97;4463416;32;34406;-76
2022/06/12 11:49:12;;;;;;;5.20;3.50;;;;;;;27.63;38.19;100002.13;4463125;32;35016;-76
2022/06/12 11:52:16;;;;;;;5.22;3.58;;;;;;;28.19;37.92;99982.97;4464182;32;35508;-76
2022/06/12 11:55:11;;;;;;;5.47;3.80;;;;;;;27.23;39.17;99985.63;4465542;32;34062;-76
2022/06/12 11:58:13;;;;;;;4.53;3.53;;;;;;;27.94;37.53;99988.94;4465220;32;35534;-78
2022/06/12 12:01:10;;;;;;;5.55;3.60;;;;;;;28.28;38.30;99976.81;4465528;32;34975;-78
2022/06/12 12:04:17;;;;;;;4.87;3.75;;;;;;;27.72;38.58;99977.09;4462818;32;35855;-79
2022/06/12 12:07:43;;;;;;;7.30;3.62;;;;;;;27.97;37.67;99977.59;4460651;32;33952;-79
2022/06/12 12:11:10;;;;;;;5.28;3.60;;;;;;;28.34;36.65;99973.09;4460217;32;35166;-79
2022/06/12 12:13:59;;;;;;;5.90;3.70;;;;;;;28.03;37.07;99961.03;4462865;32;35030;-79
2022/06/12 12:16:58;;;;;;;4.68;3.70;;;;;;;26.55;38.94;99965.66;4470844;32;34822;-80
2022/06/12 12:19:47;;;;;;;6.72;3.85;;;;;;;27.21;39.96;99964.75;4451561;32;33678;-78
2022/06/12 12:22:40;;;;;;;6.65;3.50;;;;;;;27.20;38.57;99958.34;4463119;32;34745;-79
2022/06/12 12:25:41;;;;;;;8.02;3.70;;;;;;;27.77;37.44;99946.44;4463942;32;34459;-79
2022/06/12 12:28:37;;;;;;;4.97;3.87;;;;;;;27.45;37.65;99954.47;4463284;32;34835;-78
2022/06/12 12:31:23;;;;;;;4.07;3.67;;;;;;;27.46;37.75;99947.63;4462850;32;33992;-80
2022/06/12 12:34:10;;;;;;;5.15;4.00;;;;;;;27.71;38.46;99952.97;4457629;32;34215;-79
2022/06/12 12:43:12;;;;;;;4.40;3.22;;;;;;;27.91;37.06;99933.44;4461196;32;35027;-77
2022/06/12 12:46:02;;;;;;;5.65;3.75;;;;;;;28.52;37.03;99932.59;4461143;32;35609;-77
2022/06/12 12:48:49;;;;;;;4.22;3.22;;;;;;;29.18;35.44;99925.50;4461439;32;35012;-77
2022/06/12 12:51:36;;;;;;;3.62;3.12;;;;;;;28.69;35.39;99923.88;4454450;32;35593;-76
2022/06/12 12:54:23;;;;;;;6.18;3.75;;;;;;;28.57;36.35;99923.66;4462586;32;34046;-77
2022/06/12 12:57:09;;;;;;;5.00;3.33;;;;;;;29.68;34.83;99928.16;4464690;32;34604;-77
2022/06/12 12:59:56;;;;;;;5.95;3.42;;;;;;;29.89;34.10;99918.44;4463581;32;34976;-77
2022/06/12 13:02:54;;;;;;;4.87;3.40;;;;;;;29.55;35.47;99922.34;4464789;32;35408;-76
2022/06/12 13:05:46;;;;;;;8.25;3.75;;;;;;;29.56;33.97;99914.66;4462446;32;34186;-76
2022/06/12 13:08:47;;;;;;;4.12;3.30;;;;;;;29.02;34.28;99924.13;4459544;32;34544;-76
2022/06/12 13:12:10;;;;;;;3.92;3.40;;;;;;;28.51;35.32;99920.53;4465804;32;34993;-76
2022/06/12 13:15:11;;;;;;;5.55;3.75;;;;;;;29.23;35.42;99922.16;4453584;32;34521;-76
2022/06/12 13:18:00;;;;;;;5.60;3.50;;;;;;;28.77;35.59;99915.28;4464975;32;34150;-77
2022/06/12 13:21:04;;;;;;;5.43;3.47;;;;;;;29.15;34.55;99913.03;4465831;32;34666;-76
2022/06/12 13:24:06;;;;;;;4.70;3.50;;;;;;;28.22;36.25;99908.87;4463592;32;35005;-75
2022/06/12 13:26:52;;;;;;;4.15;3.12;;;;;;;28.76;35.20;99913.69;4465778;32;34430;-76
2022/06/12 13:29:43;;;;;;;3.87;3.08;;;;;;;28.77;35.84;99910.44;4463989;32;34317;-77
2022/06/12 13:32:32;;;;;;;4.15;3.70;;;;;;;29.01;35.04;99907.63;4461057;32;34831;-77
2022/06/12 13:35:54;;;;;;;6.45;3.58;;;;;;;29.39;34.04;99896.84;4464533;32;34911;-77
2022/06/12 13:38:49;;;;;;;3.92;3.37;;;;;;;29.26;35.59;99901.53;4450027;32;34098;-76
2022/06/12 13:41:42;;;;;;;3.55;3.22;;;;;;;28.36;36.07;99897.38;4452582;32;34153;-76
2022/06/12 13:44:32;;;;;;;5.25;3.50;;;;;;;28.73;34.04;99892.00;4461632;32;35581;-76
2022/06/12 13:47:18;;;;;;;4.93;3.22;;;;;;;28.60;35.07;99895.41;4462632;32;33959;-77
2022/06/12 13:50:22;;;;;;;4.57;3.33;;;;;;;29.10;33.58;99888.94;4459471;32;35519;-76